createdAt,value
2022-12-01T00:00:17.522Z,0.847222
2022-12-01T00:05:17.805Z,0.805556
2022-12-01T00:10:17.244Z,0.788889
2022-12-01T00:15:17.508Z,0.777778
2022-12-01T00:20:17.498Z,0.752315
2022-12-01T00:25:17.295Z,0.722222
2022-12-01T00:30:18.066Z,0.722222
2022-12-01T00:35:17.465Z,0.719907
2022-12-01T00:40:17.191Z,0.694444
2022-12-01T00:45:17.157Z,0.680000
2022-12-01T00:50:17.275Z,0.645833
2022-12-01T00:55:17.457Z,0.571759
2022-12-01T01:00:17.368Z,0.555556
2022-12-01T01:05:17.443Z,0.525463
2022-12-01T01:10:17.615Z,0.502315
2022-12-01T01:15:17.197Z,0.497685
2022-12-01T01:20:17.165Z,0.460648
2022-12-01T01:25:17.142Z,0.398148
2022-12-01T01:30:17.151Z,0.340278
2022-12-01T01:35:17.054Z,0.333333
2022-12-01T01:40:17.362Z,0.331019
2022-12-01T01:45:17.101Z,0.291667
2022-12-01T01:50:17.110Z,0.256944
2022-12-01T01:55:17.041Z,0.243056
2022-12-01T02:00:17.417Z,0.270833
2022-12-01T02:05:17.127Z,0.256944
2022-12-01T02:10:17.154Z,0.175926
2022-12-01T02:15:17.170Z,0.106481
2022-12-01T02:20:17.282Z,-0.006944
2022-12-01T02:25:17.896Z,-0.067130
2022-12-01T02:30:17.265Z,-0.067130
2022-12-01T02:35:17.552Z,-0.122685
2022-12-01T02:40:17.108Z,-0.175926
2022-12-01T02:45:17.307Z,-0.219907
2022-12-01T02:50:17.272Z,-0.261574
2022-12-01T02:55:17.079Z,-0.293981
2022-12-01T03:00:17.226Z,-0.333333
2022-12-01T03:05:17.502Z,-0.314815
2022-12-01T03:10:17.186Z,-0.326389
2022-12-01T03:15:17.091Z,-0.324074
2022-12-01T03:20:17.306Z,-0.333333
2022-12-01T03:25:17.123Z,-0.333333
2022-12-01T03:30:17.172Z,-0.337963
2022-12-01T03:35:17.269Z,-0.349537
2022-12-01T03:40:17.172Z,-0.372685
2022-12-01T03:45:17.295Z,-0.356481
2022-12-01T03:50:17.316Z,-0.418981
2022-12-01T03:55:17.340Z,-0.465278
2022-12-01T04:00:17.275Z,-0.532407
2022-12-01T04:05:21.123Z,-0.604167
2022-12-01T04:10:17.274Z,-0.590278
2022-12-01T04:15:17.465Z,-0.553241
2022-12-01T04:20:17.448Z,-0.506944
2022-12-01T04:25:17.663Z,-0.518519
2022-12-01T04:30:17.553Z,-0.502315
2022-12-01T04:35:17.073Z,-0.462963
2022-12-01T04:40:17.253Z,-0.444444
2022-12-01T04:45:17.130Z,-0.444444
2022-12-01T04:50:17.126Z,-0.444444
2022-12-01T04:55:17.032Z,-0.449074
2022-12-01T05:00:17.351Z,-0.456019
2022-12-01T05:05:17.134Z,-0.449074
2022-12-01T05:10:17.157Z,-0.456019
2022-12-01T05:15:17.197Z,-0.444444
2022-12-01T05:20:17.353Z,-0.430556
2022-12-01T05:25:17.084Z,-0.386574
2022-12-01T05:30:17.209Z,-0.418981
2022-12-01T05:35:17.112Z,-0.425926
2022-12-01T05:40:17.073Z,-0.420000
2022-12-01T05:45:16.990Z,-0.368056
2022-12-01T05:50:17.119Z,-0.335648
2022-12-01T05:55:17.168Z,-0.351852
2022-12-01T06:00:17.231Z,-0.421296
2022-12-01T06:05:17.407Z,-0.446759
2022-12-01T06:10:17.331Z,-0.451389
2022-12-01T06:15:17.132Z,-0.460648
2022-12-01T06:20:17.255Z,-0.453704
2022-12-01T06:25:17.142Z,-0.437500
2022-12-01T06:30:17.502Z,-0.437500
2022-12-01T06:35:17.124Z,-0.453333
2022-12-01T06:40:17.123Z,-0.456019
2022-12-01T06:45:17.417Z,-0.439815
2022-12-01T06:50:17.899Z,-0.437500
2022-12-01T06:55:17.568Z,-0.395833
2022-12-01T07:00:17.662Z,-0.386574
2022-12-01T07:05:17.088Z,-0.351111
2022-12-01T07:10:17.717Z,-0.335648
2022-12-01T07:15:17.099Z,-0.379630
2022-12-01T07:20:17.006Z,-0.407407
2022-12-01T07:25:17.051Z,-0.423611
2022-12-01T07:30:17.174Z,-0.421296
2022-12-01T07:35:16.971Z,-0.418981
2022-12-01T07:40:17.228Z,-0.405093
2022-12-01T07:45:17.087Z,-0.335648
2022-12-01T07:50:17.180Z,-0.377315
2022-12-01T07:55:17.002Z,-0.407407
2022-12-01T08:00:17.092Z,-0.425926
2022-12-01T08:05:16.997Z,-0.354167
2022-12-01T08:10:17.185Z,-0.368056
2022-12-01T08:15:16.976Z,-0.356481
2022-12-01T08:20:22.276Z,-0.351852
2022-12-01T08:25:16.924Z,-0.372685
2022-12-01T08:30:17.083Z,-0.319444
2022-12-01T08:35:17.207Z,-0.321759
2022-12-01T08:40:17.037Z,-0.331019
2022-12-01T08:45:17.030Z,-0.337963
2022-12-01T08:50:17.043Z,-0.307870
2022-12-01T08:55:17.021Z,-0.282407
2022-12-01T09:00:17.445Z,-0.250000
2022-12-01T09:05:17.574Z,-0.201389
2022-12-01T09:10:16.947Z,-0.289352
2022-12-01T09:15:17.041Z,-0.333333
2022-12-01T09:20:17.061Z,-0.321759
2022-12-01T09:25:16.976Z,-0.224537
2022-12-01T09:30:16.987Z,-0.217593
2022-12-01T09:35:22.011Z,-0.140000
2022-12-01T09:40:16.982Z,-0.090278
2022-12-01T09:45:16.930Z,-0.106481
2022-12-01T09:50:17.277Z,-0.108796
2022-12-01T09:55:16.933Z,-0.081019
2022-12-01T10:00:16.995Z,-0.053241
2022-12-01T10:05:17.069Z,0.030093
2022-12-01T10:10:17.075Z,0.094907
2022-12-01T10:15:16.978Z,0.113426
2022-12-01T10:20:16.935Z,0.127315
2022-12-01T10:25:17.008Z,0.108796
2022-12-01T10:30:16.972Z,0.131944
2022-12-01T10:35:16.990Z,0.159722
2022-12-01T10:40:17.039Z,0.164352
2022-12-01T10:45:17.125Z,0.157407
2022-12-01T10:50:17.398Z,0.118056
2022-12-01T10:55:17.465Z,0.175926
2022-12-01T11:00:42.953Z,0.238426
2022-12-01T11:05:16.952Z,0.245370
2022-12-01T11:10:17.165Z,0.184444
2022-12-01T11:15:17.020Z,0.280093
2022-12-01T11:20:17.075Z,0.282407
2022-12-01T11:25:17.011Z,0.273148
2022-12-01T11:30:17.027Z,0.312500
2022-12-01T11:35:17.017Z,0.335648
2022-12-01T11:40:16.954Z,0.340278
2022-12-01T11:45:16.931Z,0.307870
2022-12-01T11:50:16.955Z,0.314815
2022-12-01T11:55:17.153Z,0.356481
2022-12-01T12:00:16.954Z,0.386574
2022-12-01T12:05:16.983Z,0.439815
2022-12-01T12:10:17.314Z,0.446759
2022-12-01T12:15:17.107Z,0.444444
2022-12-01T12:20:17.739Z,0.381944
2022-12-01T12:25:17.005Z,0.400463
2022-12-01T12:30:17.278Z,0.439815
2022-12-01T12:35:17.037Z,0.425926
2022-12-01T12:40:17.065Z,0.407407
2022-12-01T12:45:17.075Z,0.414352
2022-12-01T12:50:17.008Z,0.460648
2022-12-01T12:55:17.228Z,0.481481
2022-12-01T13:00:17.463Z,0.432870
2022-12-01T13:05:17.003Z,0.464444
2022-12-01T13:10:17.093Z,0.594907
2022-12-01T13:15:16.914Z,0.590278
2022-12-01T13:20:17.321Z,0.474537
2022-12-01T13:25:16.908Z,0.408889
2022-12-01T13:30:17.006Z,0.407407
2022-12-01T13:35:17.007Z,0.472222
2022-12-01T13:40:16.947Z,0.543981
2022-12-01T13:45:17.128Z,0.532407
2022-12-01T13:50:17.032Z,0.444444
2022-12-01T13:55:16.927Z,0.388889
2022-12-01T14:00:16.961Z,0.391204
2022-12-01T14:05:17.001Z,0.391111
2022-12-01T14:10:16.983Z,0.405093
2022-12-01T14:15:16.939Z,0.391204
2022-12-01T14:20:17.142Z,0.344907
2022-12-01T14:25:17.446Z,0.335648
2022-12-01T14:30:16.907Z,0.313333
2022-12-01T14:35:17.248Z,0.304444
2022-12-01T14:40:17.478Z,0.310185
2022-12-01T14:45:17.024Z,0.264444
2022-12-01T14:50:16.897Z,0.256944
2022-12-01T14:55:17.056Z,0.247685
2022-12-01T15:00:16.941Z,0.208333
2022-12-01T15:05:16.984Z,0.171296
2022-12-01T15:10:17.304Z,0.160000
2022-12-01T15:15:19.808Z,0.166667
2022-12-01T15:20:17.124Z,0.166667
2022-12-01T15:25:16.945Z,0.145833
2022-12-01T15:30:17.331Z,0.125000
2022-12-01T15:35:16.852Z,0.108796
2022-12-01T15:41:21.088Z,0.106667
2022-12-01T15:45:16.913Z,0.113426
2022-12-01T15:50:17.165Z,0.118056
2022-12-01T15:55:16.865Z,0.153333
2022-12-01T16:00:16.882Z,0.143519
2022-12-01T16:05:16.932Z,0.111111
2022-12-01T16:10:17.172Z,0.111111
2022-12-01T16:15:16.953Z,0.097222
2022-12-01T16:20:16.945Z,0.099537
2022-12-01T16:25:16.886Z,0.062500
2022-12-01T16:30:16.972Z,0.057870
2022-12-01T16:35:16.870Z,0.074074
2022-12-01T16:40:16.945Z,0.069444
2022-12-01T16:45:17.314Z,0.078704
2022-12-01T16:50:17.201Z,0.090278
2022-12-01T16:55:16.810Z,0.085648
2022-12-01T17:00:17.065Z,0.053241
2022-12-01T17:05:17.534Z,0.041667
2022-12-01T17:10:16.941Z,0.041667
2022-12-01T17:15:16.889Z,0.043981
2022-12-01T17:20:16.909Z,0.013889
2022-12-01T17:25:16.881Z,0.051111
2022-12-01T17:30:16.903Z,0.027778
2022-12-01T17:35:16.809Z,0.006944
2022-12-01T17:40:16.848Z,0.000000
2022-12-01T17:45:16.862Z,-0.002315
2022-12-01T17:50:16.884Z,-0.004630
2022-12-01T17:55:16.980Z,-0.011574
2022-12-01T18:00:17.036Z,-0.011574
2022-12-01T18:05:16.955Z,-0.011574
2022-12-01T18:10:16.920Z,-0.034722
2022-12-01T18:15:16.764Z,-0.044444
2022-12-01T18:20:16.870Z,-0.025463
2022-12-01T18:25:16.863Z,-0.023148
2022-12-01T18:30:17.072Z,-0.016204
2022-12-01T18:35:16.924Z,-0.002315
2022-12-01T18:40:16.759Z,0.000000
2022-12-01T18:45:21.073Z,0.000000
2022-12-01T18:50:16.981Z,0.006944
2022-12-01T18:55:16.883Z,0.023148
2022-12-01T19:00:17.264Z,0.020833
2022-12-01T19:05:17.203Z,0.039352
2022-12-01T19:10:17.375Z,0.034722
2022-12-01T19:15:16.840Z,0.024444
2022-12-01T19:20:16.764Z,0.030093
2022-12-01T19:25:16.826Z,0.037037
2022-12-01T19:30:16.921Z,0.006944
2022-12-01T19:35:16.858Z,-0.002315
2022-12-01T19:40:16.817Z,0.000000
2022-12-01T19:45:16.796Z,0.000000
2022-12-01T19:50:17.134Z,0.004444
2022-12-01T19:55:16.840Z,0.006944
2022-12-01T20:00:16.811Z,0.000000
2022-12-01T20:05:16.861Z,-0.002315
2022-12-01T20:10:16.836Z,0.000000
2022-12-01T20:15:16.841Z,-0.004630
2022-12-01T20:20:16.864Z,-0.006667
2022-12-01T20:25:16.794Z,-0.004630
2022-12-01T20:30:17.039Z,0.000000
2022-12-01T20:35:16.837Z,-0.002315
2022-12-01T20:40:16.809Z,0.000000
2022-12-01T20:45:17.345Z,0.020833
2022-12-01T20:50:16.813Z,0.020833
2022-12-01T20:55:16.799Z,0.039352
2022-12-01T21:00:17.338Z,0.048611
2022-12-01T21:05:17.171Z,0.057870
2022-12-01T21:10:20.137Z,0.055556
2022-12-01T21:15:17.179Z,0.055556
2022-12-01T21:20:16.914Z,0.055556
2022-12-01T21:25:16.960Z,0.048889
2022-12-01T21:30:19.539Z,0.055556
2022-12-01T21:35:19.524Z,0.060185
2022-12-01T21:40:19.561Z,0.057870
2022-12-01T21:45:19.701Z,0.060185
2022-12-01T21:50:19.726Z,0.099537
2022-12-01T21:55:19.368Z,0.106481
2022-12-01T22:00:19.413Z,0.083333
2022-12-01T22:05:19.638Z,0.057870
2022-12-01T22:10:19.447Z,0.060185
2022-12-01T22:15:19.542Z,0.050926
2022-12-01T22:20:19.417Z,0.046296
2022-12-01T22:25:19.588Z,0.030093
2022-12-01T22:30:19.379Z,0.009259
2022-12-01T22:35:19.323Z,0.034722
2022-12-01T22:40:19.338Z,0.046296
2022-12-01T22:45:19.431Z,0.046296
2022-12-01T22:50:19.543Z,0.057870
2022-12-01T22:55:19.615Z,0.060185
2022-12-01T23:00:20.654Z,0.060185
2022-12-01T23:05:19.413Z,0.071759
2022-12-01T23:10:19.322Z,0.081019
2022-12-01T23:15:19.199Z,0.069444
2022-12-01T23:20:19.245Z,0.062500
2022-12-01T23:25:19.563Z,0.067130
2022-12-01T23:30:19.265Z,0.099537
2022-12-01T23:35:19.535Z,0.101852
2022-12-01T23:40:19.303Z,0.090278
2022-12-01T23:45:19.229Z,0.085648
2022-12-01T23:50:19.261Z,0.104167
2022-12-01T23:55:19.194Z,0.104167
